createdAt,value
2018-02-04T00:01:07.215Z,15.98
2018-02-04T00:03:34.023Z,16.33
2018-02-04T00:06:00.020Z,17.42
2018-02-04T00:08:26.171Z,17.73
2018-02-04T00:10:52.319Z,17.08
2018-02-04T00:13:18.353Z,18.08
2018-02-04T00:15:45.233Z,17.15
2018-02-04T00:18:11.210Z,17.75
2018-02-04T00:20:37.198Z,15.83
2018-02-04T00:23:03.149Z,17.67
2018-02-04T00:25:29.138Z,16.50
2018-02-04T00:27:55.219Z,17.00
2018-02-04T00:30:21.923Z,17.30
2018-02-04T00:32:47.917Z,16.37
2018-02-04T00:35:14.099Z,17.67
2018-02-04T00:37:40.807Z,16.73
2018-02-04T00:40:06.770Z,17.60
2018-02-04T00:42:32.851Z,17.40
2018-02-04T00:44:58.760Z,17.73
2018-02-04T00:47:25.290Z,16.67
2018-02-04T00:49:51.494Z,17.10
2018-02-04T00:52:17.479Z,14.93
2018-02-04T00:54:43.506Z,16.87
2018-02-04T00:57:10.240Z,17.85
2018-02-04T00:59:36.979Z,16.33
2018-02-04T01:02:03.021Z,18.27
2018-02-04T01:04:28.990Z,16.60
2018-02-04T01:06:54.946Z,17.50
2018-02-04T01:09:20.898Z,19.50
2018-02-04T01:11:46.852Z,17.97
2018-02-04T01:14:12.824Z,18.70
2018-02-04T01:16:39.989Z,17.20
2018-02-04T01:19:05.948Z,18.20
2018-02-04T01:21:32.922Z,17.73
2018-02-04T01:23:59.706Z,16.65
2018-02-04T01:26:25.698Z,17.48
2018-02-04T01:28:51.691Z,17.50
2018-02-04T01:31:17.712Z,16.73
2018-02-04T01:33:43.660Z,17.12
2018-02-04T01:36:09.871Z,16.70
2018-02-04T01:38:35.929Z,16.23
2018-02-04T01:41:02.025Z,19.02
2018-02-04T01:43:27.973Z,17.05
2018-02-04T01:45:54.971Z,15.90
2018-02-04T01:48:21.810Z,17.20
2018-02-04T01:50:47.936Z,17.73
2018-02-04T01:53:13.968Z,17.42
2018-02-04T01:55:39.981Z,17.92
2018-02-04T01:58:05.922Z,17.07
2018-02-04T02:00:31.871Z,17.60
2018-02-04T02:02:57.868Z,17.23
2018-02-04T02:05:23.897Z,17.00
2018-02-04T02:07:50.717Z,17.70
2018-02-04T02:10:16.666Z,16.35
2018-02-04T02:12:42.606Z,16.77
2018-02-04T02:15:08.593Z,15.53
2018-02-04T02:17:34.571Z,16.50
2018-02-04T02:20:00.531Z,17.30
2018-02-04T02:22:26.543Z,17.27
2018-02-04T02:24:52.563Z,16.98
2018-02-04T02:27:18.535Z,16.83
2018-02-04T02:29:44.483Z,16.77
2018-02-04T02:32:10.458Z,17.77
2018-02-04T02:34:36.484Z,17.60
2018-02-04T02:37:02.476Z,16.10
2018-02-04T02:39:28.484Z,16.77
2018-02-04T02:41:54.441Z,16.90
2018-02-04T02:44:20.391Z,17.00
2018-02-04T02:46:46.366Z,17.90
2018-02-04T02:49:12.338Z,18.37
2018-02-04T02:51:38.525Z,16.50
2018-02-04T02:54:04.508Z,18.17
2018-02-04T02:56:30.482Z,16.37
2018-02-04T02:58:56.459Z,17.90
2018-02-04T03:01:22.503Z,15.43
2018-02-04T03:03:48.643Z,16.60
2018-02-04T03:06:14.601Z,16.92
2018-02-04T03:08:40.569Z,16.33
2018-02-04T03:11:06.498Z,16.20
2018-02-04T03:13:32.474Z,18.23
2018-02-04T03:15:58.427Z,18.37
2018-02-04T03:18:24.411Z,17.27
2018-02-04T03:20:50.398Z,16.67
2018-02-04T03:23:17.101Z,16.17
2018-02-04T03:25:43.050Z,16.02
2018-02-04T03:28:08.994Z,16.40
2018-02-04T03:30:34.955Z,17.10
2018-02-04T03:33:00.941Z,18.30
2018-02-04T03:35:26.942Z,15.93
2018-02-04T03:37:53.754Z,18.42
2018-02-04T03:40:20.004Z,16.95
2018-02-04T03:42:46.802Z,17.17
2018-02-04T03:45:12.795Z,17.48
2018-02-04T03:47:38.817Z,18.20
2018-02-04T03:50:04.753Z,16.60
2018-02-04T03:52:30.687Z,16.10
2018-02-04T03:54:56.679Z,17.83
2018-02-04T03:57:22.669Z,16.37
2018-02-04T03:59:49.434Z,16.37
2018-02-04T04:02:15.445Z,16.23
2018-02-04T04:04:41.386Z,19.08
2018-02-04T04:07:08.192Z,17.03
2018-02-04T04:09:34.905Z,17.05
2018-02-04T04:12:01.150Z,16.25
2018-02-04T04:14:27.163Z,15.57
2018-02-04T04:16:53.195Z,16.62
2018-02-04T04:19:20.828Z,17.10
2018-02-04T04:21:46.841Z,15.85
2018-02-04T04:24:13.892Z,17.62
2018-02-04T04:26:39.924Z,16.37
2018-02-04T04:29:06.008Z,16.35
2018-02-04T04:31:32.010Z,16.45
2018-02-04T04:33:58.704Z,15.75
2018-02-04T04:36:24.726Z,17.17
2018-02-04T04:38:50.910Z,16.48
2018-02-04T04:41:16.880Z,16.50
2018-02-04T04:43:42.888Z,15.83
2018-02-04T04:46:08.874Z,16.23
2018-02-04T04:48:34.846Z,17.17
2018-02-04T04:51:00.880Z,16.10
2018-02-04T04:53:26.870Z,15.93
2018-02-04T04:55:53.087Z,16.57
2018-02-04T04:58:19.057Z,16.15
2018-02-04T05:00:45.051Z,15.83
2018-02-04T05:03:11.151Z,15.60
2018-02-04T05:05:37.142Z,16.87
2018-02-04T05:08:03.087Z,17.57
2018-02-04T05:10:29.082Z,15.50
2018-02-04T05:12:55.071Z,17.07
2018-02-04T05:15:21.116Z,16.57
2018-02-04T05:17:47.120Z,17.45
2018-02-04T05:20:13.067Z,16.10
2018-02-04T05:22:39.138Z,16.97
2018-02-04T05:25:05.556Z,17.02
2018-02-04T05:27:31.524Z,17.42
2018-02-04T05:29:57.551Z,17.20
2018-02-04T05:32:23.516Z,16.12
2018-02-04T05:34:49.550Z,16.33
2018-02-04T05:37:15.522Z,19.30
2018-02-04T05:39:42.212Z,17.43
2018-02-04T05:42:08.237Z,20.77
2018-02-04T05:44:34.239Z,17.92
2018-02-04T05:47:01.007Z,19.05
2018-02-04T05:49:27.034Z,17.80
2018-02-04T05:51:53.022Z,18.70
2018-02-04T05:54:19.798Z,18.50
2018-02-04T05:56:45.799Z,17.08
2018-02-04T05:59:11.821Z,17.50
2018-02-04T06:01:38.110Z,18.52
2018-02-04T06:04:04.054Z,20.50
2018-02-04T06:06:30.810Z,19.10
2018-02-04T06:08:56.780Z,18.85
2018-02-04T06:11:22.711Z,20.57
2018-02-04T06:13:48.711Z,18.80
2018-02-04T06:16:14.714Z,20.37
2018-02-04T06:18:40.651Z,18.98
2018-02-04T06:21:06.641Z,19.67
2018-02-04T06:23:32.660Z,19.17
2018-02-04T06:25:58.698Z,19.00
2018-02-04T06:28:24.676Z,21.27
2018-02-04T06:30:50.682Z,21.63
2018-02-04T06:33:16.675Z,21.30
2018-02-04T06:35:42.650Z,20.55
2018-02-04T06:38:08.595Z,21.97
2018-02-04T06:40:34.542Z,20.27
2018-02-04T06:43:00.475Z,21.10
2018-02-04T06:45:26.453Z,19.80
2018-02-04T06:47:52.495Z,18.60
2018-02-04T06:50:18.463Z,19.58
2018-02-04T06:52:44.397Z,19.47
2018-02-04T06:55:10.360Z,19.47
2018-02-04T06:57:36.388Z,19.83
2018-02-04T07:00:02.484Z,19.33
2018-02-04T07:02:28.431Z,18.10
2018-02-04T07:04:54.383Z,16.37
2018-02-04T07:07:20.383Z,16.73
2018-02-04T07:09:47.248Z,16.92
2018-02-04T07:12:13.275Z,16.05
2018-02-04T07:14:39.278Z,15.07
2018-02-04T07:17:05.248Z,14.40
2018-02-04T07:19:31.262Z,14.90
2018-02-04T07:21:58.975Z,13.88
2018-02-04T07:24:25.024Z,12.43
2018-02-04T07:26:51.843Z,12.20
2018-02-04T07:29:17.774Z,11.10
2018-02-04T07:31:43.734Z,12.30
2018-02-04T07:34:10.467Z,13.60
2018-02-04T07:36:36.459Z,14.95
2018-02-04T07:39:02.456Z,13.10
2018-02-04T07:41:28.460Z,13.40
2018-02-04T07:43:54.452Z,11.77
2018-02-04T07:46:20.523Z,12.03
2018-02-04T07:48:46.595Z,11.05
2018-02-04T07:51:12.701Z,10.57
2018-02-04T07:53:38.676Z,11.15
2018-02-04T07:56:04.699Z,10.40
2018-02-04T07:58:30.696Z,11.35
2018-02-04T08:00:56.766Z,11.27
2018-02-04T08:03:22.778Z,12.57
2018-02-04T08:05:48.861Z,12.05
2018-02-04T08:08:14.959Z,10.85
2018-02-04T08:10:41.097Z,11.20
2018-02-04T08:13:07.092Z,11.63
2018-02-04T08:15:34.806Z,11.40
2018-02-04T08:18:02.347Z,10.95
2018-02-04T08:20:28.358Z,12.80
2018-02-04T08:22:54.387Z,10.55
2018-02-04T08:25:21.153Z,11.98
2018-02-04T08:27:47.170Z,13.25
2018-02-04T08:30:16.946Z,11.68
2018-02-04T08:32:42.964Z,12.07
2018-02-04T08:35:08.980Z,11.82
2018-02-04T08:37:35.012Z,12.02
2018-02-04T08:40:01.034Z,12.27
2018-02-04T08:42:27.038Z,13.62
2018-02-04T08:44:54.837Z,11.57
2018-02-04T08:47:20.876Z,10.55
2018-02-04T08:49:47.180Z,11.52
2018-02-04T08:52:14.060Z,10.88
2018-02-04T08:54:40.072Z,11.43
2018-02-04T08:57:06.996Z,12.10
2018-02-04T08:59:33.032Z,9.73
2018-02-04T09:01:59.757Z,11.32
2018-02-04T09:04:25.803Z,12.30
2018-02-04T09:06:51.816Z,11.52
2018-02-04T09:09:18.742Z,11.40
2018-02-04T09:11:44.794Z,12.00
2018-02-04T09:14:11.487Z,13.15
2018-02-04T09:16:37.555Z,12.27
2018-02-04T09:19:03.555Z,12.23
2018-02-04T09:21:29.499Z,12.83
2018-02-04T09:23:55.475Z,15.33
2018-02-04T09:26:21.465Z,12.27
2018-02-04T09:28:47.511Z,14.07
2018-02-04T09:31:13.490Z,13.55
2018-02-04T09:33:40.522Z,12.77
2018-02-04T09:36:07.256Z,13.80
2018-02-04T09:38:33.242Z,12.30
2018-02-04T09:40:59.318Z,12.60
2018-02-04T09:43:25.572Z,14.20
2018-02-04T09:45:52.651Z,13.40
2018-02-04T09:48:19.300Z,14.00
2018-02-04T09:50:45.363Z,12.55
2018-02-04T09:53:11.432Z,12.30
2018-02-04T09:55:37.602Z,13.07
2018-02-04T09:58:04.465Z,12.57
2018-02-04T10:00:31.189Z,11.25
2018-02-04T10:02:57.270Z,11.75
2018-02-04T10:05:23.441Z,11.00
2018-02-04T10:07:51.085Z,10.70
2018-02-04T10:10:18.954Z,10.77
2018-02-04T10:12:45.620Z,12.30
2018-02-04T10:15:11.851Z,11.50
2018-02-04T10:20:10.490Z,10.15
2018-02-04T10:22:36.802Z,11.60
2018-02-04T10:25:02.951Z,11.10
2018-02-04T10:27:29.131Z,11.18
2018-02-04T10:29:55.205Z,11.10
2018-02-04T10:32:22.509Z,12.75
2018-02-04T10:34:49.866Z,11.00
2018-02-04T10:37:18.552Z,10.65
2018-02-04T10:39:44.590Z,11.45
2018-02-04T10:42:11.309Z,11.90
2018-02-04T10:44:38.201Z,10.85
2018-02-04T10:47:06.080Z,12.10
2018-02-04T10:49:33.191Z,10.80
2018-02-04T10:51:59.233Z,11.10
2018-02-04T10:54:26.453Z,9.55
2018-02-04T10:56:53.440Z,11.27
2018-02-04T10:59:21.489Z,9.50
2018-02-04T11:01:52.858Z,11.00
2018-02-04T11:04:25.647Z,10.93
2018-02-04T11:06:51.661Z,10.45
2018-02-04T11:09:17.920Z,11.45
2018-02-04T11:11:47.718Z,11.30
2018-02-04T11:14:14.460Z,11.80
2018-02-04T11:16:42.463Z,12.48
2018-02-04T11:19:10.541Z,12.02
2018-02-04T11:21:37.465Z,11.65
2018-02-04T11:24:04.153Z,11.43
2018-02-04T11:26:30.447Z,10.13
2018-02-04T11:28:56.410Z,10.93
2018-02-04T11:31:22.447Z,12.70
2018-02-04T11:33:48.683Z,11.35
2018-02-04T11:36:16.291Z,12.40
2018-02-04T11:39:05.739Z,13.15
2018-02-04T11:41:35.811Z,13.07
2018-02-04T11:44:05.852Z,12.80
2018-02-04T11:46:34.770Z,12.65
2018-02-04T11:49:00.954Z,12.48
2018-02-04T11:51:26.963Z,11.70
2018-02-04T11:53:53.532Z,10.25
2018-02-04T11:56:20.486Z,11.75
2018-02-04T11:58:46.574Z,12.32
2018-02-04T12:01:13.477Z,9.57
2018-02-04T12:03:41.936Z,11.02
2018-02-04T12:06:10.179Z,9.93
2018-02-04T12:08:36.902Z,9.63
2018-02-04T12:11:04.863Z,10.80
2018-02-04T12:13:31.555Z,8.15
2018-02-04T12:15:57.659Z,8.80
2018-02-04T12:18:23.672Z,8.23
2018-02-04T12:20:53.640Z,9.20
2018-02-04T12:23:21.470Z,9.60
2018-02-04T12:25:48.698Z,9.65
2018-02-04T12:28:15.838Z,10.50
2018-02-04T12:30:42.399Z,11.70
2018-02-04T12:33:10.340Z,10.07
2018-02-04T12:35:37.416Z,9.13
2018-02-04T12:38:03.867Z,11.38
2018-02-04T12:40:29.989Z,9.55
2018-02-04T12:42:58.239Z,9.60
2018-02-04T12:45:24.490Z,9.25
2018-02-04T12:47:51.036Z,9.73
2018-02-04T12:50:17.558Z,9.85
2018-02-04T12:52:45.137Z,11.60
2018-02-04T12:55:11.196Z,11.30
2018-02-04T12:57:37.219Z,13.80
2018-02-04T13:00:03.461Z,12.98
2018-02-04T13:02:29.678Z,13.35
2018-02-04T13:04:56.861Z,13.25
2018-02-04T13:10:02.397Z,12.20
2018-02-04T13:12:29.194Z,11.35
2018-02-04T13:14:58.645Z,11.77
2018-02-04T13:17:25.975Z,12.82
2018-02-04T13:19:53.251Z,11.55
2018-02-04T13:22:19.484Z,11.10
2018-02-04T13:24:45.553Z,12.75
2018-02-04T13:27:11.892Z,10.25
2018-02-04T13:29:39.623Z,10.77
2018-02-04T13:32:05.723Z,12.45
2018-02-04T13:34:32.481Z,11.70
2018-02-04T13:36:58.591Z,12.55
2018-02-04T13:39:24.940Z,11.93
2018-02-04T13:41:51.028Z,11.23
2018-02-04T13:44:17.771Z,13.05
2018-02-04T13:46:44.630Z,13.32
2018-02-04T13:49:10.799Z,11.48
2018-02-04T13:51:36.802Z,11.32
2018-02-04T13:54:03.127Z,12.50
2018-02-04T13:56:29.795Z,10.98
2018-02-04T13:58:58.209Z,10.85
2018-02-04T14:01:25.034Z,12.05
2018-02-04T14:03:51.034Z,13.05
2018-02-04T14:06:17.006Z,11.77
2018-02-04T14:08:43.405Z,11.80
2018-02-04T14:11:09.773Z,12.90
2018-02-04T14:13:35.825Z,12.45
2018-02-04T14:16:02.108Z,12.00
2018-02-04T14:18:28.736Z,12.02
2018-02-04T14:20:54.691Z,11.93
2018-02-04T14:23:21.622Z,12.63
2018-02-04T14:25:47.616Z,13.35
2018-02-04T14:28:15.899Z,12.13
2018-02-04T14:30:42.780Z,11.70
2018-02-04T14:33:09.510Z,11.80
2018-02-04T14:35:36.378Z,11.55
2018-02-04T14:38:02.331Z,11.85
2018-02-04T14:40:28.310Z,12.80
2018-02-04T14:42:55.054Z,12.80
2018-02-04T14:45:21.043Z,11.25
2018-02-04T14:47:47.788Z,13.13
2018-02-04T14:50:14.602Z,13.25
2018-02-04T14:52:40.791Z,12.60
2018-02-04T14:55:06.734Z,13.27
2018-02-04T14:57:32.758Z,12.33
2018-02-04T14:59:58.750Z,11.38
2018-02-04T15:02:24.731Z,11.18
2018-02-04T15:04:51.412Z,12.40
2018-02-04T15:07:18.186Z,11.57
2018-02-04T15:09:44.295Z,11.55
2018-02-04T15:12:10.453Z,12.55
2018-02-04T15:14:36.508Z,12.85
2018-02-04T15:17:03.264Z,12.07
2018-02-04T15:19:29.498Z,11.27
2018-02-04T15:21:55.463Z,12.52
2018-02-04T15:24:21.513Z,12.73
2018-02-04T15:26:48.314Z,13.23
2018-02-04T15:29:14.323Z,11.70
2018-02-04T15:31:40.318Z,13.68
2018-02-04T15:34:06.294Z,13.07
2018-02-04T15:36:32.816Z,12.63
2018-02-04T15:38:58.795Z,13.60
2018-02-04T15:41:24.767Z,13.10
2018-02-04T15:43:50.795Z,14.00
2018-02-04T15:46:16.797Z,14.87
2018-02-04T15:48:42.974Z,11.87
2018-02-04T15:51:09.677Z,13.25
2018-02-04T15:53:35.725Z,13.68
2018-02-04T15:56:01.852Z,12.98
2018-02-04T15:58:29.743Z,12.23
2018-02-04T16:00:59.390Z,13.55
2018-02-04T16:03:25.406Z,13.40
2018-02-04T16:05:51.368Z,12.65
2018-02-04T16:08:17.727Z,14.27
2018-02-04T16:10:43.657Z,13.15
2018-02-04T16:13:09.710Z,13.13
2018-02-04T16:15:35.704Z,13.65
2018-02-04T16:18:01.927Z,13.18
2018-02-04T16:20:28.678Z,13.40
2018-02-04T16:22:54.667Z,14.18
2018-02-04T16:25:20.762Z,13.33
2018-02-04T16:27:46.840Z,13.25
2018-02-04T16:30:12.969Z,14.38
2018-02-04T16:32:39.331Z,18.67
2018-02-04T16:35:06.231Z,16.77
2018-02-04T16:37:32.179Z,20.05
2018-02-04T16:39:58.937Z,17.03
2018-02-04T16:42:26.236Z,14.32
2018-02-04T16:44:54.969Z,15.35
2018-02-04T16:47:25.722Z,12.07
2018-02-04T16:49:54.586Z,15.60
2018-02-04T16:52:26.756Z,13.90
2018-02-04T16:54:56.874Z,13.82
2018-02-04T16:57:25.279Z,13.73
2018-02-04T16:59:53.583Z,14.82
2018-02-04T17:02:23.080Z,14.77
2018-02-04T17:04:49.274Z,16.50
2018-02-04T17:07:16.258Z,14.68
2018-02-04T17:09:43.753Z,12.15
2018-02-04T17:12:09.807Z,13.18
2018-02-04T17:14:35.796Z,14.77
2018-02-04T17:17:01.806Z,12.45
2018-02-04T17:19:28.206Z,12.85
2018-02-04T17:21:59.068Z,14.07
2018-02-04T17:24:25.047Z,12.80
2018-02-04T17:26:52.088Z,11.93
2018-02-04T17:29:18.285Z,13.30
2018-02-04T17:31:44.234Z,13.10
2018-02-04T17:34:11.163Z,13.20
2018-02-04T17:36:37.102Z,13.45
2018-02-04T17:39:03.252Z,13.20
2018-02-04T17:41:29.269Z,13.02
2018-02-04T17:43:55.618Z,13.13
2018-02-04T17:46:21.867Z,13.62
2018-02-04T17:48:50.121Z,13.75
2018-02-04T17:51:16.907Z,13.13
2018-02-04T17:53:43.090Z,12.95
2018-02-04T17:56:09.821Z,13.30
2018-02-04T17:58:35.931Z,14.57
2018-02-04T18:01:04.144Z,13.80
2018-02-04T18:03:30.448Z,14.13
2018-02-04T18:05:56.400Z,13.45
2018-02-04T18:08:22.887Z,12.67
2018-02-04T18:10:49.641Z,12.93
2018-02-04T18:13:18.979Z,12.82
2018-02-04T18:15:45.996Z,11.93
2018-02-04T18:18:13.318Z,13.48
2018-02-04T18:20:40.190Z,11.65
2018-02-04T18:23:07.331Z,13.02
2018-02-04T18:25:34.735Z,15.10
2018-02-04T18:28:00.716Z,23.83
2018-02-04T18:30:28.813Z,10.88
2018-02-04T18:32:54.899Z,12.88
2018-02-04T18:35:24.227Z,13.32
2018-02-04T18:37:50.221Z,11.32
2018-02-04T18:40:16.932Z,10.73
2018-02-04T18:42:43.478Z,9.95
2018-02-04T18:45:09.642Z,9.23
2018-02-04T18:47:35.962Z,10.27
2018-02-04T18:50:03.262Z,10.50
2018-02-04T18:52:29.261Z,10.45
2018-02-04T18:54:56.863Z,9.93
2018-02-04T18:57:24.019Z,9.40
2018-02-04T18:59:50.890Z,10.65
2018-02-04T19:02:16.863Z,9.95
2018-02-04T19:04:42.835Z,10.83
2018-02-04T19:07:08.898Z,9.80
2018-02-04T19:09:36.794Z,10.57
2018-02-04T19:12:03.992Z,10.45
2018-02-04T19:14:30.742Z,12.77
2018-02-04T19:16:57.555Z,12.02
2018-02-04T19:19:23.705Z,11.27
2018-02-04T19:21:51.204Z,10.15
2018-02-04T19:24:18.552Z,10.55
2018-02-04T19:26:44.810Z,10.23
2018-02-04T19:29:11.642Z,10.23
2018-02-04T19:31:39.246Z,10.95
2018-02-04T19:34:06.115Z,10.18
2018-02-04T19:36:32.098Z,10.18
2018-02-04T19:38:58.944Z,10.03
2018-02-04T19:41:28.335Z,10.90
2018-02-04T19:43:55.194Z,10.73
2018-02-04T19:46:21.223Z,10.55
2018-02-04T19:48:47.215Z,10.23
2018-02-04T19:51:13.281Z,9.33
2018-02-04T19:53:39.252Z,10.82
2018-02-04T19:56:06.050Z,9.53
2018-02-04T19:58:32.044Z,9.85
2018-02-04T20:00:58.063Z,10.95
2018-02-04T20:03:23.996Z,10.98
2018-02-04T20:05:50.703Z,10.03
2018-02-04T20:08:16.855Z,10.82
2018-02-04T20:10:42.831Z,9.90
2018-02-04T20:13:09.576Z,10.77
2018-02-04T20:15:36.360Z,11.15
2018-02-04T20:18:02.513Z,14.85
2018-02-04T20:20:30.377Z,15.75
2018-02-04T20:22:57.046Z,10.40
2018-02-04T20:25:23.738Z,12.68
2018-02-04T20:27:49.714Z,19.70
2018-02-04T20:30:15.710Z,11.13
2018-02-04T20:32:54.564Z,10.35
2018-02-04T20:35:21.264Z,10.68
2018-02-04T20:37:47.223Z,9.95
2018-02-04T20:40:13.237Z,11.20
2018-02-04T20:42:39.346Z,11.02
2018-02-04T20:45:05.480Z,10.65
2018-02-04T20:47:33.164Z,10.50
2018-02-04T20:49:59.115Z,10.68
2018-02-04T20:52:25.067Z,9.53
2018-02-04T20:54:51.943Z,10.73
2018-02-04T20:57:17.965Z,12.60
2018-02-04T20:59:44.944Z,10.35
2018-02-04T21:02:10.955Z,11.30
2018-02-04T21:04:36.951Z,11.48
2018-02-04T21:07:02.957Z,10.60
2018-02-04T21:09:28.926Z,11.68
2018-02-04T21:11:55.753Z,12.93
2018-02-04T21:14:21.739Z,11.63
2018-02-04T21:16:48.481Z,10.67
2018-02-04T21:19:15.335Z,11.88
2018-02-04T21:21:41.419Z,11.77
2018-02-04T21:24:07.554Z,23.27
2018-02-04T21:26:34.358Z,17.12
2018-02-04T21:29:00.311Z,11.63
2018-02-04T21:31:26.254Z,14.57
2018-02-04T21:33:53.065Z,35.63
2018-02-04T21:36:19.705Z,11.95
2018-02-04T21:38:45.734Z,10.98
2018-02-04T21:41:13.207Z,11.00
2018-02-04T21:43:39.214Z,12.90
2018-02-04T21:46:05.324Z,11.12
2018-02-04T21:48:32.404Z,11.57
2018-02-04T21:50:59.405Z,10.15
2018-02-04T21:53:25.350Z,9.80
2018-02-04T21:55:51.315Z,11.33
2018-02-04T21:58:17.287Z,11.53
2018-02-04T22:00:43.290Z,11.30
2018-02-04T22:03:09.500Z,12.30
2018-02-04T22:05:35.494Z,11.32
2018-02-04T22:08:01.820Z,11.75
2018-02-04T22:10:28.541Z,11.55
2018-02-04T22:12:54.557Z,10.93
2018-02-04T22:15:20.487Z,10.95
2018-02-04T22:17:46.421Z,12.67
2018-02-04T22:20:12.387Z,10.20
2018-02-04T22:22:38.405Z,12.10
2018-02-04T22:25:04.363Z,10.93
2018-02-04T22:27:30.305Z,11.20
2018-02-04T22:29:56.294Z,11.23
2018-02-04T22:32:22.323Z,11.83
2018-02-04T22:34:49.973Z,11.05
2018-02-04T22:37:16.004Z,11.75
2018-02-04T22:39:42.078Z,10.90
2018-02-04T22:42:08.229Z,11.73
2018-02-04T22:44:55.431Z,12.27
2018-02-04T22:47:21.674Z,10.23
2018-02-04T22:49:47.656Z,12.73
2018-02-04T22:52:13.602Z,11.40
2018-02-04T22:54:39.482Z,11.10
2018-02-04T22:57:05.420Z,11.00
2018-02-04T22:59:32.090Z,10.10
2018-02-04T23:01:58.085Z,9.90
2018-02-04T23:04:24.130Z,12.13
2018-02-04T23:06:50.050Z,11.23
2018-02-04T23:09:16.118Z,12.43
2018-02-04T23:11:42.079Z,13.43
2018-02-04T23:14:08.051Z,10.73
2018-02-04T23:16:33.994Z,10.40
2018-02-04T23:18:59.936Z,11.30
2018-02-04T23:21:26.730Z,11.40
2018-02-04T23:23:52.664Z,12.75
2018-02-04T23:26:19.400Z,11.80
2018-02-04T23:28:45.360Z,12.00
2018-02-04T23:31:12.994Z,11.90
2018-02-04T23:33:38.972Z,11.45
2018-02-04T23:36:04.995Z,10.80
2018-02-04T23:38:31.785Z,12.90
2018-02-04T23:40:57.691Z,12.75
2018-02-04T23:43:23.679Z,12.83
2018-02-04T23:45:49.599Z,11.93
2018-02-04T23:48:16.252Z,12.67
2018-02-04T23:50:42.147Z,12.10
2018-02-04T23:53:08.056Z,11.93
2018-02-04T23:55:33.972Z,12.37
2018-02-04T23:57:59.902Z,13.07
